Time;durP1;ratioP1;P1;durP2;ratioP2;P2;SDS_P1;SDS_P2;PMS_P1;PMS_P2;Temp;Humidity;BMP_temperature;BMP_pressure;BME280_temperature;BME280_humidity;BME280_pressure;Samples;Min_cycle;Max_cycle;Signal;HPM_P1;HPM_P2
2021/12/03 00:01:52;;;;;;;2.90;1.80;;;;;;;7.89;55.54;93747.41;5095251;28;20054;-76
2021/12/03 00:04:18;;;;;;;3.30;1.80;;;;;;;8.16;54.90;93741.53;5093930;28;20489;-74
2021/12/03 00:06:43;;;;;;;6.72;2.00;;;;;;;8.26;54.60;93742.31;5109447;28;20073;-75
2021/12/03 00:09:08;;;;;;;2.50;1.80;;;;;;;8.41;54.28;93747.94;5126203;27;20023;-74
2021/12/03 00:11:34;;;;;;;2.63;1.65;;;;;;;8.38;54.41;93748.16;5130033;27;20027;-74
2021/12/03 00:13:59;;;;;;;4.10;1.75;;;;;;;8.35;54.33;93738.09;5132201;27;20031;-74
2021/12/03 00:16:25;;;;;;;2.85;1.50;;;;;;;8.65;53.53;93737.09;5116179;27;20035;-74
2021/12/03 00:18:50;;;;;;;3.15;1.73;;;;;;;8.69;52.59;93722.06;5122492;27;20034;-75
2021/12/03 00:21:17;;;;;;;3.15;1.40;;;;;;;8.67;53.60;93708.47;5131632;27;20100;-74
2021/12/03 00:23:42;;;;;;;3.83;1.60;;;;;;;8.71;52.92;93709.81;5117303;27;20031;-74
2021/12/03 00:26:08;;;;;;;3.78;1.50;;;;;;;8.97;52.74;93722.94;5093910;28;20024;-74
2021/12/03 00:28:34;;;;;;;3.25;1.70;;;;;;;8.94;52.62;93731.81;5107101;27;20064;-74
2021/12/03 00:31:00;;;;;;;3.85;1.80;;;;;;;8.92;52.75;93723.34;5145941;27;20023;-74
2021/12/03 00:33:25;;;;;;;3.40;1.50;;;;;;;8.87;53.03;93733.31;5097206;27;20027;-74
2021/12/03 00:35:52;;;;;;;3.67;1.40;;;;;;;8.77;53.74;93714.41;5131655;27;20472;-74
2021/12/03 00:38:17;;;;;;;2.80;1.67;;;;;;;8.91;52.86;93726.91;5098678;27;20574;-74
2021/12/03 00:40:43;;;;;;;4.00;1.60;;;;;;;8.98;53.19;93728.94;5131502;27;20039;-74
2021/12/03 00:43:09;;;;;;;2.53;1.42;;;;;;;8.91;53.32;93726.91;5114213;27;20413;-74
2021/12/03 00:45:35;;;;;;;2.80;1.45;;;;;;;8.87;53.05;93720.38;5109046;28;20409;-74
2021/12/03 00:48:00;;;;;;;2.97;1.70;;;;;;;8.59;54.56;93705.78;5093629;28;20028;-75
2021/12/03 00:50:27;;;;;;;3.10;1.60;;;;;;;8.90;53.54;93720.09;5108520;27;20031;-74
2021/12/03 00:52:52;;;;;;;2.40;1.42;;;;;;;8.89;53.59;93717.66;5134648;27;20050;-74
2021/12/03 00:55:18;;;;;;;4.70;1.75;;;;;;;8.85;53.63;93727.47;5134530;27;20065;-75
2021/12/03 00:57:44;;;;;;;5.32;2.20;;;;;;;8.97;52.87;93714.31;5117460;27;20408;-75
2021/12/03 01:00:23;;;;;;;2.55;1.60;;;;;;;9.32;51.43;93706.63;5153033;27;20045;-75
2021/12/03 01:02:48;;;;;;;2.25;1.30;;;;;;;9.63;51.02;93738.19;5132308;27;20026;-75
2021/12/03 01:05:14;;;;;;;2.20;1.25;;;;;;;9.48;52.33;93741.47;5106302;27;20422;-75
2021/12/03 01:07:39;;;;;;;2.60;1.35;;;;;;;9.29;52.65;93725.06;5134343;27;20030;-74
2021/12/03 01:10:05;;;;;;;2.38;1.58;;;;;;;9.12;53.84;93728.44;5146009;27;20046;-74
2021/12/03 01:12:31;;;;;;;2.47;1.65;;;;;;;8.95;54.09;93733.41;5111548;28;20060;-75
2021/12/03 01:14:56;;;;;;;3.25;1.67;;;;;;;8.91;55.74;93734.69;5085296;27;20030;-74
2021/12/03 01:17:22;;;;;;;5.85;1.85;;;;;;;8.80;55.75;93739.22;5152746;27;20506;-74
2021/12/03 01:19:48;;;;;;;3.08;1.80;;;;;;;8.56;57.20;93742.31;5114175;27;20031;-74
2021/12/03 01:22:13;;;;;;;2.65;1.60;;;;;;;8.55;55.12;93727.72;5096694;28;20114;-75
2021/12/03 01:24:38;;;;;;;5.65;1.65;;;;;;;8.63;54.70;93735.59;5129839;27;20042;-74
2021/12/03 01:27:04;;;;;;;4.20;1.63;;;;;;;8.72;54.11;93752.88;5119851;27;20382;-73
2021/12/03 01:29:30;;;;;;;4.25;1.70;;;;;;;8.59;53.76;93752.38;5111454;28;20396;-74
2021/12/03 01:31:56;;;;;;;2.42;1.75;;;;;;;8.47;54.20;93726.66;5127090;27;20030;-74
2021/12/03 01:34:22;;;;;;;3.58;1.63;;;;;;;8.41;55.85;93744.50;5099642;28;20062;-74
2021/12/03 01:36:47;;;;;;;3.88;2.33;;;;;;;8.29;54.19;93769.69;5096387;28;20489;-74
2021/12/03 01:39:13;;;;;;;3.88;2.10;;;;;;;8.11;54.86;93732.53;5109892;28;20485;-74
2021/12/03 01:41:39;;;;;;;4.72;2.00;;;;;;;7.98;56.12;93715.53;5110735;28;20035;-74
2021/12/03 01:44:05;;;;;;;4.07;2.58;;;;;;;7.82;57.92;93707.53;5113281;28;20074;-74
2021/12/03 01:46:31;;;;;;;3.60;2.50;;;;;;;7.56;59.49;93725.38;5109707;28;20070;-74
2021/12/03 01:48:56;;;;;;;3.42;2.30;;;;;;;7.34;60.21;93744.50;5111204;28;20035;-74
2021/12/03 01:51:21;;;;;;;5.07;2.58;;;;;;;7.36;57.12;93721.94;5105582;27;20507;-73
2021/12/03 01:53:47;;;;;;;6.60;2.10;;;;;;;7.25;57.95;93699.63;5151169;27;20027;-73
2021/12/03 01:56:13;;;;;;;3.25;2.30;;;;;;;7.08;60.02;93726.94;5150740;27;20023;-74
2021/12/03 01:58:39;;;;;;;4.32;2.70;;;;;;;7.02;59.19;93740.38;5151051;27;20475;-74
2021/12/03 02:01:09;;;;;;;6.22;2.67;;;;;;;7.01;58.45;93702.56;5150791;27;20027;-74
2021/12/03 02:03:36;;;;;;;5.25;2.30;;;;;;;6.96;59.80;93720.22;5117131;27;20058;-74
2021/12/03 02:06:01;;;;;;;3.92;2.35;;;;;;;6.81;59.56;93739.63;5116224;27;20046;-74
2021/12/03 02:08:27;;;;;;;5.22;2.75;;;;;;;6.89;58.92;93709.59;5133515;27;20030;-74
2021/12/03 02:10:53;;;;;;;3.35;2.53;;;;;;;6.76;60.83;93697.88;5151033;27;20027;-73
2021/12/03 02:13:18;;;;;;;5.38;2.63;;;;;;;6.66;61.43;93706.41;5150785;27;20031;-73
2021/12/03 02:15:44;;;;;;;3.90;2.80;;;;;;;6.61;60.90;93723.25;5116559;27;20459;-74
2021/12/03 02:18:10;;;;;;;4.90;2.75;;;;;;;6.50;61.14;93724.13;5140919;27;20408;-74
2021/12/03 02:20:44;;;;;;;4.03;2.60;;;;;;;6.47;60.17;93708.91;5130328;28;20031;-73
2021/12/03 02:23:10;;;;;;;5.35;2.60;;;;;;;6.59;60.03;93728.50;5126167;27;20023;-73
2021/12/03 02:25:35;;;;;;;4.57;2.80;;;;;;;6.59;59.87;93707.06;5132504;27;20027;-73
2021/12/03 02:28:01;;;;;;;3.88;2.78;;;;;;;6.53;62.37;93710.16;5120589;28;20019;-73
2021/12/03 02:30:26;;;;;;;4.18;2.55;;;;;;;6.33;61.23;93671.38;5130192;28;20561;-73
2021/12/03 02:32:52;;;;;;;4.30;2.53;;;;;;;6.37;61.30;93671.94;5131039;27;20505;-73
2021/12/03 02:35:18;;;;;;;5.07;2.50;;;;;;;6.36;61.63;93716.75;5095282;28;20119;-74
2021/12/03 02:37:44;;;;;;;5.40;3.00;;;;;;;6.28;61.51;93703.66;5117855;27;20045;-73
2021/12/03 02:40:10;;;;;;;4.43;2.88;;;;;;;6.21;60.75;93682.72;5116707;27;20106;-73
2021/12/03 02:42:35;;;;;;;4.18;2.90;;;;;;;6.20;62.58;93702.53;5115532;27;20535;-74
2021/12/03 02:45:01;;;;;;;7.90;3.10;;;;;;;6.23;60.85;93707.44;5099207;27;20035;-73
2021/12/03 02:47:26;;;;;;;4.45;3.00;;;;;;;6.25;61.04;93705.53;5132617;27;20035;-73
2021/12/03 02:49:52;;;;;;;6.53;3.20;;;;;;;6.19;61.03;93706.06;5133434;27;20031;-73
2021/12/03 02:52:17;;;;;;;4.88;3.10;;;;;;;6.15;62.24;93709.00;5133549;27;20030;-74
2021/12/03 02:54:43;;;;;;;6.60;3.58;;;;;;;6.05;62.07;93716.72;5142925;27;20085;-73
2021/12/03 02:57:08;;;;;;;4.72;3.08;;;;;;;6.04;60.94;93718.47;5114204;28;20405;-73
2021/12/03 02:59:34;;;;;;;5.28;3.17;;;;;;;6.00;60.69;93693.06;5126331;27;20033;-73
2021/12/03 03:02:00;;;;;;;4.18;3.17;;;;;;;6.04;60.81;93713.31;5098351;27;20515;-73
2021/12/03 03:04:26;;;;;;;4.15;3.08;;;;;;;5.89;62.19;93718.88;5131301;27;20034;-73
2021/12/03 03:06:51;;;;;;;4.63;3.10;;;;;;;5.81;61.89;93728.03;5116262;27;20027;-73
2021/12/03 03:09:16;;;;;;;4.15;2.90;;;;;;;5.69;62.78;93729.03;5101386;27;20091;-73
2021/12/03 03:11:42;;;;;;;5.13;3.28;;;;;;;5.68;61.77;93701.63;5153879;27;20097;-73
2021/12/03 03:14:07;;;;;;;4.88;3.28;;;;;;;5.65;62.55;93737.13;5153443;27;20031;-73
2021/12/03 03:16:33;;;;;;;4.85;3.03;;;;;;;5.56;61.96;93720.66;5148042;27;20035;-73
2021/12/03 03:18:59;;;;;;;7.35;3.50;;;;;;;5.65;61.92;93708.78;5124933;27;20024;-73
2021/12/03 03:21:24;;;;;;;4.43;2.67;;;;;;;5.74;61.71;93720.91;5131243;27;20424;-73
2021/12/03 03:23:49;;;;;;;5.38;3.08;;;;;;;5.68;62.04;93709.34;5095990;27;20024;-73
2021/12/03 03:26:15;;;;;;;7.90;3.45;;;;;;;5.67;63.05;93715.44;5097410;27;20035;-73
2021/12/03 03:28:41;;;;;;;4.88;3.10;;;;;;;5.69;63.18;93702.47;5095242;28;20027;-73
2021/12/03 03:31:06;;;;;;;4.53;2.92;;;;;;;5.64;63.68;93728.59;5131764;27;20015;-74
2021/12/03 03:33:32;;;;;;;4.85;3.03;;;;;;;5.63;62.93;93726.13;5141703;27;20019;-73
2021/12/03 03:35:57;;;;;;;5.40;3.40;;;;;;;5.59;61.54;93728.13;5111901;28;20066;-73
2021/12/03 03:38:23;;;;;;;4.88;3.45;;;;;;;5.55;61.65;93719.03;5095049;28;20023;-73
2021/12/03 03:40:48;;;;;;;5.65;3.38;;;;;;;5.63;60.71;93711.50;5120902;27;20031;-74
2021/12/03 03:43:14;;;;;;;5.03;3.17;;;;;;;5.62;62.62;93745.09;5115559;27;20504;-73
2021/12/03 03:45:40;;;;;;;4.97;3.00;;;;;;;5.65;60.46;93730.22;5115337;27;20034;-73
2021/12/03 03:48:05;;;;;;;3.70;2.83;;;;;;;5.69;60.12;93718.72;5125314;27;20063;-74
2021/12/03 03:50:31;;;;;;;4.55;3.13;;;;;;;5.68;61.26;93717.06;5132195;27;20027;-73
2021/12/03 03:52:56;;;;;;;4.35;3.22;;;;;;;5.62;61.25;93722.72;5133584;27;20042;-73
2021/12/03 03:55:21;;;;;;;5.00;3.15;;;;;;;5.59;60.29;93722.97;5119647;27;20027;-73
2021/12/03 03:57:47;;;;;;;4.90;2.97;;;;;;;5.52;60.96;93743.28;5102871;27;20039;-74
2021/12/03 04:00:19;;;;;;;6.35;3.38;;;;;;;5.48;60.98;93738.47;5096527;27;20027;-73
2021/12/03 04:02:44;;;;;;;4.97;3.53;;;;;;;5.50;60.59;93721.97;5114245;27;20031;-74
2021/12/03 04:05:10;;;;;;;6.88;3.35;;;;;;;5.40;63.45;93744.25;5094170;28;20639;-74
2021/12/03 04:07:36;;;;;;;4.75;3.28;;;;;;;5.40;61.89;93743.44;5132048;27;20023;-73
2021/12/03 04:10:01;;;;;;;6.32;3.33;;;;;;;5.41;61.12;93730.44;5114819;27;20130;-73
2021/12/03 04:12:27;;;;;;;5.45;3.10;;;;;;;5.43;60.77;93733.69;5115339;27;20413;-73
2021/12/03 04:14:52;;;;;;;5.55;3.33;;;;;;;5.44;60.76;93731.97;5111323;28;20032;-73
2021/12/03 04:17:18;;;;;;;5.88;3.17;;;;;;;5.40;60.99;93739.09;5126433;27;20019;-73
2021/12/03 04:19:43;;;;;;;5.75;4.00;;;;;;;5.45;60.43;93725.84;5132961;27;20036;-74
2021/12/03 04:22:09;;;;;;;6.95;4.35;;;;;;;5.44;61.22;93737.09;5126747;27;20027;-73
2021/12/03 04:24:35;;;;;;;5.97;3.15;;;;;;;5.38;61.26;93741.00;5152335;27;20062;-73
2021/12/03 04:27:00;;;;;;;5.10;3.45;;;;;;;5.40;60.37;93726.22;5132264;27;20027;-73
2021/12/03 04:29:26;;;;;;;5.03;3.40;;;;;;;5.38;60.83;93716.03;5114514;27;20066;-73
2021/12/03 04:31:51;;;;;;;5.13;3.50;;;;;;;5.32;62.79;93721.69;5130472;27;20038;-73
2021/12/03 04:34:17;;;;;;;4.88;3.28;;;;;;;5.27;62.08;93741.84;5131239;27;20038;-73
2021/12/03 04:36:42;;;;;;;4.18;3.28;;;;;;;5.24;61.58;93731.78;5110691;28;20437;-73
2021/12/03 04:39:07;;;;;;;7.28;3.55;;;;;;;4.99;63.04;93734.66;5093862;28;20474;-73
2021/12/03 04:41:33;;;;;;;5.25;3.42;;;;;;;5.03;63.12;93751.47;5111887;28;20043;-73
2021/12/03 04:43:58;;;;;;;4.90;3.33;;;;;;;5.03;63.23;93746.31;5110704;28;20028;-73
2021/12/03 04:46:24;;;;;;;6.22;3.60;;;;;;;5.14;62.14;93747.13;5113055;27;20053;-73
2021/12/03 04:48:49;;;;;;;5.38;3.50;;;;;;;5.10;62.91;93752.66;5093585;28;20039;-73
2021/12/03 04:51:15;;;;;;;4.45;3.22;;;;;;;5.17;61.99;93760.69;5093641;28;20046;-73
2021/12/03 04:53:40;;;;;;;6.22;3.22;;;;;;;5.14;61.87;93748.88;5110630;27;20030;-73
2021/12/03 04:56:06;;;;;;;4.75;3.17;;;;;;;5.21;62.32;93757.78;5128661;27;20035;-73
2021/12/03 04:58:31;;;;;;;5.95;3.40;;;;;;;5.15;62.02;93755.66;5114051;27;20038;-73
2021/12/03 05:00:57;;;;;;;4.90;3.17;;;;;;;5.21;61.79;93728.59;5076552;28;20520;-73
2021/12/03 05:03:24;;;;;;;5.53;3.50;;;;;;;5.22;63.38;93771.47;5122177;27;20020;-74
2021/12/03 05:05:55;;;;;;;6.15;3.72;;;;;;;5.18;62.45;93768.28;5097062;27;20051;-73
2021/12/03 05:08:21;;;;;;;6.85;3.47;;;;;;;5.26;61.91;93768.50;5114722;27;20031;-74
2021/12/03 05:10:46;;;;;;;6.93;3.80;;;;;;;5.27;62.14;93764.19;5131072;27;20043;-74
2021/12/03 05:13:13;;;;;;;7.07;4.00;;;;;;;5.22;63.19;93787.72;5102530;27;20123;-73
2021/12/03 05:15:39;;;;;;;7.80;3.85;;;;;;;5.25;62.26;93777.19;5140264;27;20042;-74
2021/12/03 05:18:05;;;;;;;6.15;3.63;;;;;;;5.22;63.18;93779.19;5099949;27;20018;-73
2021/12/03 05:20:31;;;;;;;5.93;3.80;;;;;;;5.25;62.90;93791.81;5134487;27;20498;-73
2021/12/03 05:22:57;;;;;;;6.15;3.97;;;;;;;5.25;62.36;93787.47;5152502;27;20026;-73
2021/12/03 05:25:22;;;;;;;5.32;3.65;;;;;;;5.29;62.21;93781.16;5134331;27;20087;-73
2021/12/03 05:27:49;;;;;;;7.28;3.50;;;;;;;5.33;62.70;93797.19;5134190;27;20026;-73
2021/12/03 05:30:14;;;;;;;6.32;3.75;;;;;;;5.25;62.45;93782.31;5151218;27;20117;-74
2021/12/03 05:32:40;;;;;;;6.18;3.47;;;;;;;5.30;63.55;93812.88;5151187;27;20427;-73
2021/12/03 05:35:06;;;;;;;6.05;3.40;;;;;;;5.32;62.40;93801.53;5133970;27;20030;-73
2021/12/03 05:37:32;;;;;;;6.18;3.30;;;;;;;5.28;63.69;93794.16;5133997;27;20023;-74
2021/12/03 05:39:57;;;;;;;6.32;3.58;;;;;;;5.28;63.72;93813.00;5133868;27;20508;-73
2021/12/03 05:42:22;;;;;;;6.63;3.35;;;;;;;5.27;62.91;93815.69;5152516;27;20034;-73
2021/12/03 05:44:48;;;;;;;4.45;3.20;;;;;;;5.32;62.80;93834.16;5139162;27;20597;-73
2021/12/03 05:47:13;;;;;;;6.00;3.90;;;;;;;5.36;62.13;93831.25;5130446;27;20026;-73
2021/12/03 05:49:39;;;;;;;6.03;3.45;;;;;;;5.36;62.21;93826.09;5123327;28;20481;-74
2021/12/03 05:52:04;;;;;;;8.43;3.42;;;;;;;5.41;63.23;93837.81;5120167;28;20027;-73
2021/12/03 05:54:30;;;;;;;5.78;2.95;;;;;;;5.41;62.85;93835.22;5111735;28;20088;-73
2021/12/03 05:56:55;;;;;;;5.80;3.35;;;;;;;5.44;62.27;93827.25;5103298;28;20114;-73
2021/12/03 05:59:21;;;;;;;4.60;3.20;;;;;;;5.35;61.99;93813.34;5092855;27;20042;-73
2021/12/03 06:01:46;;;;;;;5.13;3.55;;;;;;;5.35;63.15;93821.88;5129363;28;20080;-73
2021/12/03 06:04:12;;;;;;;5.10;3.28;;;;;;;5.31;62.97;93833.34;5093724;28;20092;-73
2021/12/03 06:06:37;;;;;;;6.55;3.90;;;;;;;5.37;62.65;93860.38;5125234;27;20024;-74
2021/12/03 06:09:03;;;;;;;5.93;3.70;;;;;;;5.41;61.85;93830.09;5115445;28;20035;-73
2021/12/03 06:11:29;;;;;;;5.25;3.33;;;;;;;5.46;62.57;93838.25;5119796;27;20114;-73
2021/12/03 06:13:54;;;;;;;5.93;3.45;;;;;;;5.41;62.99;93827.50;5115069;27;20409;-73
2021/12/03 06:16:19;;;;;;;6.13;3.65;;;;;;;5.36;63.12;93831.25;5129153;27;20054;-73
2021/12/03 06:18:45;;;;;;;5.95;3.63;;;;;;;5.38;64.80;93849.97;5131449;27;20023;-73
2021/12/03 06:21:11;;;;;;;6.07;3.03;;;;;;;5.40;63.35;93847.25;5131983;27;20054;-73
2021/12/03 06:23:37;;;;;;;6.68;2.88;;;;;;;5.39;63.87;93819.88;5107209;28;20029;-73
2021/12/03 06:26:03;;;;;;;4.65;3.00;;;;;;;5.54;63.55;93823.00;5102201;28;20276;-73
2021/12/03 06:28:29;;;;;;;7.20;3.10;;;;;;;5.67;62.85;93830.59;5130593;27;20566;-73
2021/12/03 06:30:55;;;;;;;5.05;3.38;;;;;;;5.67;64.01;93828.84;5125503;27;20462;-73
2021/12/03 06:33:20;;;;;;;8.15;3.78;;;;;;;5.70;65.05;93820.84;5135132;27;20030;-73
2021/12/03 06:35:46;;;;;;;7.20;3.58;;;;;;;5.70;65.88;93833.75;5129680;27;20402;-73
2021/12/03 06:38:12;;;;;;;4.07;2.80;;;;;;;5.76;63.58;93843.56;5102719;27;20031;-73
2021/12/03 06:40:38;;;;;;;4.22;2.60;;;;;;;5.93;63.55;93849.13;5103540;27;20454;-73
2021/12/03 06:43:03;;;;;;;5.72;3.13;;;;;;;6.03;62.38;93839.75;5088863;27;20058;-73
2021/12/03 06:45:29;;;;;;;5.43;2.97;;;;;;;6.11;61.56;93852.03;5124388;27;20035;-73
2021/12/03 06:47:54;;;;;;;4.40;3.00;;;;;;;6.02;62.81;93848.44;5121631;27;20031;-73
2021/12/03 06:50:20;;;;;;;4.78;3.13;;;;;;;6.09;63.72;93839.25;5087835;28;20040;-73
2021/12/03 06:52:49;;;;;;;4.18;3.00;;;;;;;6.11;63.18;93854.63;5129243;27;20084;-73
2021/12/03 06:55:15;;;;;;;4.63;3.13;;;;;;;6.13;62.49;93856.13;5130456;27;20069;-73
2021/12/03 06:57:44;;;;;;;5.20;3.10;;;;;;;6.21;61.67;93861.50;5115177;27;20477;-73
2021/12/03 07:00:11;;;;;;;4.20;3.10;;;;;;;6.29;61.64;93854.88;5132964;27;20046;-74
2021/12/03 07:02:36;;;;;;;4.93;3.25;;;;;;;6.37;61.99;93868.78;5116190;27;20023;-73
2021/12/03 07:05:04;;;;;;;4.63;2.90;;;;;;;6.43;61.68;93872.63;5113749;27;20047;-73
2021/12/03 07:07:30;;;;;;;5.10;3.28;;;;;;;6.43;63.02;93875.22;5113079;27;20031;-73
2021/12/03 07:09:56;;;;;;;5.93;3.25;;;;;;;6.49;61.38;93872.13;5130489;27;20602;-72
2021/12/03 07:12:21;;;;;;;5.50;3.38;;;;;;;6.63;60.61;93869.25;5129645;27;20023;-72
2021/12/03 07:14:47;;;;;;;5.28;3.38;;;;;;;6.67;63.47;93870.63;5127414;27;20089;-73
2021/12/03 07:17:12;;;;;;;5.47;3.40;;;;;;;6.65;61.66;93869.94;5132889;27;20023;-72
2021/12/03 07:19:38;;;;;;;7.90;3.42;;;;;;;6.69;61.49;93855.84;5112878;27;20084;-72
2021/12/03 07:22:03;;;;;;;5.95;3.20;;;;;;;6.98;60.08;93868.09;5112546;27;20031;-73
2021/12/03 07:24:29;;;;;;;4.93;3.03;;;;;;;7.07;59.69;93851.81;5131350;27;20039;-74
2021/12/03 07:26:54;;;;;;;10.77;5.55;;;;;;;7.13;59.90;93855.66;5115619;27;20027;-74
2021/12/03 07:29:20;;;;;;;9.40;4.78;;;;;;;7.23;62.91;93861.69;5125667;27;20029;-72
2021/12/03 07:31:45;;;;;;;8.85;4.78;;;;;;;7.29;62.01;93881.00;5124699;27;20087;-72
2021/12/03 07:34:12;;;;;;;4.88;3.22;;;;;;;7.42;59.55;93866.09;5129941;27;20480;-72
2021/12/03 07:36:37;;;;;;;5.47;3.00;;;;;;;7.60;58.76;93864.53;5124580;27;20027;-71
2021/12/03 07:39:03;;;;;;;5.80;3.13;;;;;;;7.68;58.73;93855.28;5125817;27;20032;-72
2021/12/03 07:41:29;;;;;;;5.60;3.70;;;;;;;7.89;59.54;93848.25;5121477;27;20041;-71
2021/12/03 07:43:54;;;;;;;7.97;4.35;;;;;;;7.97;61.34;93850.19;5093058;27;20410;-71
2021/12/03 07:46:20;;;;;;;6.15;3.70;;;;;;;8.15;59.95;93848.53;5113096;27;20038;-71
2021/12/03 07:48:49;;;;;;;7.97;4.40;;;;;;;8.19;61.57;93872.38;5120060;27;20031;-71
2021/12/03 07:51:18;;;;;;;8.65;5.13;;;;;;;8.20;61.16;93851.53;5118244;27;20024;-73
2021/12/03 07:53:43;;;;;;;7.13;4.88;;;;;;;8.07;62.52;93828.53;5111062;27;20055;-71
2021/12/03 07:56:09;;;;;;;7.55;4.10;;;;;;;8.36;62.03;93853.59;5110146;27;20031;-71
2021/12/03 07:58:35;;;;;;;5.40;3.83;;;;;;;8.45;62.75;93863.16;5100321;27;20031;-71
2021/12/03 08:01:00;;;;;;;6.85;3.90;;;;;;;8.64;63.03;93854.56;5122184;27;20035;-71
2021/12/03 08:03:25;;;;;;;6.78;4.45;;;;;;;8.75;63.65;93853.59;5091651;28;20032;-71
2021/12/03 08:05:51;;;;;;;11.63;6.63;;;;;;;8.97;61.76;93836.06;5120124;27;20055;-72
2021/12/03 08:08:22;;;;;;;31.25;16.25;;;;;;;9.10;61.38;93857.31;5121658;27;20011;-72
2021/12/03 08:10:49;;;;;;;19.50;11.35;;;;;;;9.29;60.94;93865.00;5114082;27;20043;-71
2021/12/03 08:13:14;;;;;;;21.45;10.93;;;;;;;9.45;59.57;93863.59;5122853;27;20474;-72
2021/12/03 08:15:40;;;;;;;39.25;21.92;;;;;;;9.55;56.32;93874.72;5137575;27;20031;-72
2021/12/03 08:18:06;;;;;;;26.15;13.85;;;;;;;9.74;57.45;93872.03;5121036;27;20506;-71
2021/12/03 08:20:31;;;;;;;7.60;4.60;;;;;;;9.91;55.84;93874.81;5130464;27;20160;-72
2021/12/03 08:22:57;;;;;;;8.10;4.70;;;;;;;10.03;57.73;93884.03;5113307;27;20027;-72
2021/12/03 08:25:22;;;;;;;8.10;4.82;;;;;;;10.19;56.80;93871.22;5129247;27;20084;-71
2021/12/03 08:27:48;;;;;;;10.35;6.05;;;;;;;10.24;56.88;93871.59;5131297;27;20415;-71
2021/12/03 08:30:13;;;;;;;9.93;5.40;;;;;;;10.45;55.94;93873.94;5129847;27;20107;-71
2021/12/03 08:32:41;;;;;;;7.00;4.22;;;;;;;10.50;57.04;93874.31;5130036;27;20047;-71
2021/12/03 08:35:06;;;;;;;7.65;3.85;;;;;;;10.41;56.90;93882.97;5111332;27;20035;-71
2021/12/03 08:37:32;;;;;;;6.38;3.63;;;;;;;10.33;56.34;93882.09;5119058;27;20413;-71
2021/12/03 08:39:57;;;;;;;9.63;5.45;;;;;;;10.18;54.95;93866.19;5126172;27;20031;-71
2021/12/03 08:42:23;;;;;;;5.05;3.03;;;;;;;10.28;54.28;93870.38;5113197;27;20027;-72
2021/12/03 08:44:48;;;;;;;4.22;2.38;;;;;;;10.45;53.05;93873.13;5127224;27;20117;-71
2021/12/03 08:47:13;;;;;;;6.05;2.90;;;;;;;10.45;55.18;93875.72;5112153;27;20031;-71
2021/12/03 08:49:47;;;;;;;7.32;3.60;;;;;;;10.41;57.73;93866.59;5117472;27;20474;-72
2021/12/03 08:52:26;;;;;;;5.10;3.08;;;;;;;10.39;55.60;93837.34;5123571;27;20026;-73
2021/12/03 08:54:53;;;;;;;5.53;2.58;;;;;;;10.57;54.95;93856.34;5130798;27;20031;-73
2021/12/03 08:57:26;;;;;;;5.05;2.30;;;;;;;10.79;52.74;93865.44;5092631;27;20050;-72
2021/12/03 08:59:54;;;;;;;3.10;1.55;;;;;;;10.84;52.66;93854.59;5113919;27;20019;-73
2021/12/03 09:02:20;;;;;;;5.22;2.03;;;;;;;10.84;53.59;93877.97;5105354;28;20051;-72
2021/12/03 09:04:46;;;;;;;8.00;2.28;;;;;;;10.94;51.22;93866.50;5127983;27;20065;-71
2021/12/03 09:07:11;;;;;;;5.82;1.55;;;;;;;11.14;49.81;93877.53;5129080;27;20481;-72
2021/12/03 09:09:36;;;;;;;5.85;1.48;;;;;;;11.25;48.99;93884.25;5103927;28;20054;-73
2021/12/03 09:12:02;;;;;;;5.32;1.52;;;;;;;11.26;50.44;93887.69;5124855;27;20030;-72
2021/12/03 09:17:21;;;;;;;;;;;;;;;11.10;55.57;93894.41;5127651;27;20416;-72
2021/12/03 09:19:53;;;;;;;12.20;5.15;;;;;;;11.08;54.26;93872.13;5125705;27;19923;-72
2021/12/03 09:22:43;;;;;;;9.55;4.78;;;;;;;11.08;53.67;93879.91;5122125;27;20027;-73
2021/12/03 09:25:07;;;;;;;9.95;5.22;;;;;;;11.16;51.78;93874.78;5127999;27;20135;-73
2021/12/03 09:27:32;;;;;;;6.90;1.60;;;;;;;11.29;50.66;93874.38;5127852;27;20031;-73
2021/12/03 09:29:58;;;;;;;6.32;1.52;;;;;;;11.30;51.19;93878.59;5106741;27;20107;-73
2021/12/03 09:32:27;;;;;;;3.10;1.13;;;;;;;11.34;50.62;93872.94;5127612;27;20030;-72
2021/12/03 09:34:53;;;;;;;4.85;1.23;;;;;;;11.40;50.87;93868.91;5111720;27;20473;-73
2021/12/03 09:37:18;;;;;;;6.07;1.20;;;;;;;11.38;49.71;93866.44;5131700;27;20088;-73
2021/12/03 09:39:45;;;;;;;4.00;1.40;;;;;;;11.38;51.52;93879.44;5129817;27;20463;-72
2021/12/03 09:42:11;;;;;;;7.65;2.90;;;;;;;11.32;51.29;93861.06;5124011;27;20023;-72
2021/12/03 09:44:41;;;;;;;6.53;1.95;;;;;;;11.41;50.01;93873.94;5108756;27;20031;-73
2021/12/03 09:47:06;;;;;;;4.88;1.00;;;;;;;11.42;51.00;93869.53;5106527;27;20040;-73
2021/12/03 09:49:36;;;;;;;4.47;1.20;;;;;;;11.45;50.04;93864.06;5128451;27;20042;-73
2021/12/03 09:54:38;;;;;;;5.68;1.73;;;;;;;11.35;50.54;93871.16;5116555;27;20404;-73
2021/12/03 09:57:10;;;;;;;6.95;1.55;;;;;;;11.40;48.92;93859.31;5129906;27;20031;-73
2021/12/03 10:02:32;;;;;;;7.10;1.40;;;;;;;11.55;51.53;93866.53;5113749;27;20424;-73
2021/12/03 10:13:00;;;;;;;7.78;1.50;;;;;;;11.75;47.64;93851.47;5122318;27;20031;-73
2021/12/03 10:18:09;;;;;;;6.47;1.20;;;;;;;11.94;45.99;93820.03;5133563;27;20064;-73
2021/12/03 10:20:52;;;;;;;8.90;1.40;;;;;;;11.92;48.62;93844.56;5118871;27;20468;-73
2021/12/03 10:26:55;;;;;;;4.20;1.23;;;;;;;12.03;46.80;93878.91;5110891;27;20043;-73
2021/12/03 10:32:37;;;;;;;5.82;1.30;;;;;;;12.22;46.25;93835.38;5109633;27;20208;-74
2021/12/03 10:38:10;;;;;;;9.55;1.15;;;;;;;12.43;44.38;93860.97;5113096;27;20046;-72
2021/12/03 10:45:46;;;;;;;5.22;1.35;;;;;;;12.62;43.98;93865.03;5130949;27;20191;-73
2021/12/03 10:48:26;;;;;;;12.15;3.15;;;;;;;12.61;43.69;93855.59;5113525;27;20110;-73
2021/12/03 10:51:12;;;;;;;6.00;1.10;;;;;;;12.73;44.31;93854.28;5120850;27;20039;-74
2021/12/03 10:53:45;;;;;;;4.75;1.00;;;;;;;12.78;43.35;93827.72;5131194;27;20019;-73
2021/12/03 10:56:43;;;;;;;5.90;1.10;;;;;;;12.87;42.81;93851.03;5094177;27;20061;-73
2021/12/03 10:59:32;;;;;;;5.57;0.98;;;;;;;12.82;44.55;93840.28;5124322;27;20062;-73
2021/12/03 11:34:42;;;;;;;5.32;1.20;;;;;;;12.88;44.36;93829.19;5117188;27;20034;-72
2021/12/03 12:30:18;;;;;;;8.23;1.50;;;;;;;12.82;45.42;93818.63;5117755;27;20459;-74
2021/12/03 14:03:37;;;;;;;3.35;0.70;;;;;;;12.38;44.48;93853.63;5128137;28;20474;-72
2021/12/03 14:37:40;;;;;;;4.68;1.20;;;;;;;12.19;44.83;93875.56;5115886;27;20039;-73
2021/12/03 14:48:19;;;;;;;5.43;0.90;;;;;;;12.14;44.13;93870.00;5111387;27;20048;-73
2021/12/03 14:56:16;;;;;;;;;;;;;;;11.82;46.63;93874.13;5113739;27;20477;-72
2021/12/03 14:58:51;;;;;;;4.47;1.20;;;;;;;11.67;51.12;93882.66;5113127;27;19911;-72
2021/12/03 15:01:31;;;;;;;4.10;1.10;;;;;;;11.66;50.63;93883.66;5108057;27;20110;-73
2021/12/03 15:07:09;;;;;;;6.00;2.08;;;;;;;11.46;49.04;93873.47;5120371;27;20035;-72
2021/12/03 15:09:54;;;;;;;8.02;2.45;;;;;;;11.40;51.26;93895.72;5106992;27;20043;-73
2021/12/03 15:31:06;;;;;;;;;;;;;;;11.47;47.18;93914.09;5119603;27;20577;-73
2021/12/03 15:36:04;;;;;;;6.28;2.58;;;;;;;11.18;52.92;93927.44;5133580;27;20481;-73
2021/12/03 15:39:06;;;;;;;4.68;1.80;;;;;;;11.12;54.62;93939.25;5130781;27;20047;-73
2021/12/03 15:51:49;;;;;;;4.13;1.50;;;;;;;11.00;55.69;93930.03;5127327;27;20035;-72
2021/12/03 15:54:04;;;;;;;8.80;4.65;;;;;;;10.91;53.26;93920.56;5127902;27;20042;-73
2021/12/03 16:06:28;;;;;;;25.50;13.07;;;;;;;11.31;49.64;93914.00;5110245;28;20059;-73
2021/12/03 16:08:56;;;;;;;19.23;9.77;;;;;;;11.37;49.60;93910.81;5108087;27;20031;-73
2021/12/03 16:47:02;;;;;;;;;;;;;;;11.89;47.22;93978.41;5122943;27;20063;-73
2021/12/03 16:52:14;;;;;;;15.93;10.02;;;;;;;11.77;50.47;94001.25;5113935;27;20059;-73
2021/12/03 16:57:07;;;;;;;14.55;9.88;;;;;;;10.48;54.26;94028.63;5131194;27;20043;-73
2021/12/03 16:59:33;;;;;;;15.13;7.72;;;;;;;9.44;57.51;94041.63;5114360;27;20025;-73
2021/12/03 17:02:07;;;;;;;18.55;8.35;;;;;;;8.92;59.27;94035.94;5113912;27;20023;-73
2021/12/03 17:26:18;;;;;;;10.68;4.72;;;;;;;7.23;65.21;94076.09;5131031;27;20077;-73
2021/12/03 17:28:59;;;;;;;12.63;7.90;;;;;;;7.31;65.30;94096.97;5130914;27;20087;-73
2021/12/03 17:50:09;;;;;;;44.65;24.10;;;;;;;7.33;64.51;94120.91;5113856;28;20040;-72
2021/12/03 18:00:05;;;;;;;33.15;19.58;;;;;;;7.14;64.89;94131.09;5131952;27;20039;-72
2021/12/03 18:02:44;;;;;;;31.80;19.13;;;;;;;7.18;64.82;94162.66;5130466;28;20522;-72
2021/12/03 18:56:01;;;;;;;5.90;4.13;;;;;;;5.69;67.32;94203.22;5112433;28;20035;-72
2021/12/03 18:58:28;;;;;;;6.80;4.22;;;;;;;5.54;68.18;94189.69;5125399;27;20248;-72